sensor_id;sensor_type;location;lat;lon;timestamp;P1;durP1;ratioP1;P2;durP2;ratioP2
15110;SDS011;7656;51.954;7.998;2022-12-13T00:00:04;33.83;;;17.03;;
15110;SDS011;7656;51.954;7.998;2022-12-13T00:04:33;39.13;;;17.80;;
15110;SDS011;7656;51.954;7.998;2022-12-13T00:08:54;30.93;;;16.13;;
15110;SDS011;7656;51.954;7.998;2022-12-13T00:13:15;25.20;;;13.13;;
15110;SDS011;7656;51.954;7.998;2022-12-13T00:17:36;25.50;;;12.27;;
15110;SDS011;7656;51.954;7.998;2022-12-13T00:21:57;25.10;;;12.50;;
15110;SDS011;7656;51.954;7.998;2022-12-13T00:26:19;23.37;;;13.07;;
15110;SDS011;7656;51.954;7.998;2022-12-13T00:30:43;29.57;;;13.90;;
15110;SDS011;7656;51.954;7.998;2022-12-13T00:35:04;31.37;;;13.97;;
15110;SDS011;7656;51.954;7.998;2022-12-13T00:39:26;23.57;;;12.47;;
15110;SDS011;7656;51.954;7.998;2022-12-13T00:43:47;24.53;;;12.37;;
15110;SDS011;7656;51.954;7.998;2022-12-13T00:48:08;26.70;;;13.50;;
15110;SDS011;7656;51.954;7.998;2022-12-13T00:52:29;21.10;;;12.30;;
15110;SDS011;7656;51.954;7.998;2022-12-13T00:56:51;24.77;;;11.53;;
15110;SDS011;7656;51.954;7.998;2022-12-13T01:01:13;22.53;;;11.93;;
15110;SDS011;7656;51.954;7.998;2022-12-13T01:05:36;28.07;;;12.70;;
15110;SDS011;7656;51.954;7.998;2022-12-13T01:09:57;25.03;;;12.90;;
15110;SDS011;7656;51.954;7.998;2022-12-13T01:14:18;23.70;;;11.93;;
15110;SDS011;7656;51.954;7.998;2022-12-13T01:18:39;25.97;;;12.87;;
15110;SDS011;7656;51.954;7.998;2022-12-13T01:23:01;26.87;;;14.33;;
15110;SDS011;7656;51.954;7.998;2022-12-13T01:27:23;21.87;;;11.80;;
15110;SDS011;7656;51.954;7.998;2022-12-13T01:31:44;20.40;;;11.20;;
15110;SDS011;7656;51.954;7.998;2022-12-13T01:36:07;19.80;;;11.37;;
15110;SDS011;7656;51.954;7.998;2022-12-13T01:40:32;26.53;;;12.00;;
15110;SDS011;7656;51.954;7.998;2022-12-13T01:49:33;24.33;;;11.37;;
15110;SDS011;7656;51.954;7.998;2022-12-13T01:53:55;19.33;;;10.37;;
15110;SDS011;7656;51.954;7.998;2022-12-13T01:58:19;18.80;;;11.57;;
15110;SDS011;7656;51.954;7.998;2022-12-13T02:02:41;20.97;;;11.17;;
15110;SDS011;7656;51.954;7.998;2022-12-13T02:07:02;21.53;;;10.53;;
15110;SDS011;7656;51.954;7.998;2022-12-13T02:11:24;22.90;;;11.87;;
15110;SDS011;7656;51.954;7.998;2022-12-13T02:20:55;19.47;;;11.87;;
15110;SDS011;7656;51.954;7.998;2022-12-13T02:30:52;26.17;;;11.03;;
15110;SDS011;7656;51.954;7.998;2022-12-13T02:39:56;21.13;;;11.87;;
15110;SDS011;7656;51.954;7.998;2022-12-13T02:44:30;20.47;;;10.53;;
15110;SDS011;7656;51.954;7.998;2022-12-13T02:49:00;17.37;;;10.70;;
15110;SDS011;7656;51.954;7.998;2022-12-13T02:53:22;20.13;;;11.03;;
15110;SDS011;7656;51.954;7.998;2022-12-13T02:57:45;25.63;;;12.03;;
15110;SDS011;7656;51.954;7.998;2022-12-13T03:02:20;21.30;;;10.83;;
15110;SDS011;7656;51.954;7.998;2022-12-13T03:12:04;19.10;;;10.60;;
15110;SDS011;7656;51.954;7.998;2022-12-13T03:16:55;18.47;;;10.37;;
15110;SDS011;7656;51.954;7.998;2022-12-13T03:21:18;22.07;;;10.60;;
15110;SDS011;7656;51.954;7.998;2022-12-13T03:25:40;22.00;;;11.30;;
15110;SDS011;7656;51.954;7.998;2022-12-13T03:30:01;19.57;;;10.70;;
15110;SDS011;7656;51.954;7.998;2022-12-13T03:34:22;22.93;;;10.60;;
15110;SDS011;7656;51.954;7.998;2022-12-13T03:38:43;20.67;;;10.07;;
15110;SDS011;7656;51.954;7.998;2022-12-13T03:43:09;19.97;;;8.80;;
15110;SDS011;7656;51.954;7.998;2022-12-13T03:47:31;21.93;;;10.60;;
15110;SDS011;7656;51.954;7.998;2022-12-13T03:51:52;22.77;;;11.13;;
15110;SDS011;7656;51.954;7.998;2022-12-13T03:56:13;22.63;;;10.70;;
15110;SDS011;7656;51.954;7.998;2022-12-13T04:00:34;21.27;;;10.43;;
15110;SDS011;7656;51.954;7.998;2022-12-13T04:04:55;18.00;;;8.73;;
15110;SDS011;7656;51.954;7.998;2022-12-13T04:09:16;22.33;;;11.13;;
15110;SDS011;7656;51.954;7.998;2022-12-13T04:13:37;17.77;;;9.20;;
15110;SDS011;7656;51.954;7.998;2022-12-13T04:17:58;21.23;;;9.53;;
15110;SDS011;7656;51.954;7.998;2022-12-13T04:22:19;18.00;;;8.40;;
15110;SDS011;7656;51.954;7.998;2022-12-13T04:26:40;17.50;;;8.73;;
15110;SDS011;7656;51.954;7.998;2022-12-13T04:31:01;18.13;;;9.63;;
15110;SDS011;7656;51.954;7.998;2022-12-13T04:35:22;27.20;;;11.40;;
15110;SDS011;7656;51.954;7.998;2022-12-13T04:39:44;16.47;;;9.47;;
15110;SDS011;7656;51.954;7.998;2022-12-13T04:44:06;18.40;;;9.47;;
15110;SDS011;7656;51.954;7.998;2022-12-13T04:48:28;16.93;;;9.73;;
15110;SDS011;7656;51.954;7.998;2022-12-13T04:52:51;17.00;;;10.07;;
15110;SDS011;7656;51.954;7.998;2022-12-13T04:57:12;22.50;;;8.73;;
15110;SDS011;7656;51.954;7.998;2022-12-13T05:01:33;19.73;;;10.00;;
15110;SDS011;7656;51.954;7.998;2022-12-13T05:05:54;12.13;;;7.77;;
15110;SDS011;7656;51.954;7.998;2022-12-13T05:10:16;16.10;;;9.10;;
15110;SDS011;7656;51.954;7.998;2022-12-13T05:14:37;17.67;;;9.50;;
15110;SDS011;7656;51.954;7.998;2022-12-13T05:18:58;17.80;;;9.27;;
15110;SDS011;7656;51.954;7.998;2022-12-13T05:23:20;19.60;;;10.63;;
15110;SDS011;7656;51.954;7.998;2022-12-13T05:27:43;17.37;;;9.20;;
15110;SDS011;7656;51.954;7.998;2022-12-13T05:32:04;15.77;;;9.30;;
15110;SDS011;7656;51.954;7.998;2022-12-13T05:36:26;18.73;;;10.13;;
15110;SDS011;7656;51.954;7.998;2022-12-13T05:40:47;20.63;;;8.30;;
15110;SDS011;7656;51.954;7.998;2022-12-13T05:45:08;21.83;;;9.33;;
15110;SDS011;7656;51.954;7.998;2022-12-13T05:49:29;21.23;;;9.10;;
15110;SDS011;7656;51.954;7.998;2022-12-13T05:53:51;20.63;;;9.07;;
15110;SDS011;7656;51.954;7.998;2022-12-13T05:58:12;20.73;;;9.63;;
15110;SDS011;7656;51.954;7.998;2022-12-13T06:02:39;16.90;;;8.97;;
15110;SDS011;7656;51.954;7.998;2022-12-13T06:07:03;16.47;;;9.43;;
15110;SDS011;7656;51.954;7.998;2022-12-13T06:11:24;33.17;;;11.93;;
15110;SDS011;7656;51.954;7.998;2022-12-13T06:15:45;21.53;;;10.03;;
15110;SDS011;7656;51.954;7.998;2022-12-13T06:20:06;21.83;;;9.20;;
15110;SDS011;7656;51.954;7.998;2022-12-13T06:24:28;20.33;;;9.17;;
15110;SDS011;7656;51.954;7.998;2022-12-13T06:28:49;16.83;;;9.40;;
15110;SDS011;7656;51.954;7.998;2022-12-13T06:33:10;15.93;;;8.53;;
15110;SDS011;7656;51.954;7.998;2022-12-13T06:37:31;22.73;;;9.97;;
15110;SDS011;7656;51.954;7.998;2022-12-13T06:41:53;21.17;;;10.00;;
15110;SDS011;7656;51.954;7.998;2022-12-13T06:46:15;19.93;;;10.23;;
15110;SDS011;7656;51.954;7.998;2022-12-13T06:50:36;15.93;;;8.90;;
15110;SDS011;7656;51.954;7.998;2022-12-13T06:54:57;19.27;;;9.63;;
15110;SDS011;7656;51.954;7.998;2022-12-13T06:59:18;15.47;;;7.93;;
15110;SDS011;7656;51.954;7.998;2022-12-13T07:03:40;14.03;;;7.73;;
15110;SDS011;7656;51.954;7.998;2022-12-13T07:08:02;16.13;;;9.07;;
15110;SDS011;7656;51.954;7.998;2022-12-13T07:12:23;19.23;;;8.60;;
15110;SDS011;7656;51.954;7.998;2022-12-13T07:16:46;17.30;;;9.03;;
15110;SDS011;7656;51.954;7.998;2022-12-13T07:21:07;19.23;;;9.87;;
15110;SDS011;7656;51.954;7.998;2022-12-13T07:25:30;16.50;;;8.83;;
15110;SDS011;7656;51.954;7.998;2022-12-13T07:29:51;16.37;;;9.07;;
15110;SDS011;7656;51.954;7.998;2022-12-13T07:34:12;17.77;;;8.23;;
15110;SDS011;7656;51.954;7.998;2022-12-13T07:38:33;20.77;;;8.77;;
15110;SDS011;7656;51.954;7.998;2022-12-13T07:42:55;16.77;;;8.37;;
15110;SDS011;7656;51.954;7.998;2022-12-13T07:47:19;74.37;;;28.73;;
15110;SDS011;7656;51.954;7.998;2022-12-13T07:51:40;25.53;;;9.77;;
15110;SDS011;7656;51.954;7.998;2022-12-13T07:56:03;19.27;;;9.37;;
15110;SDS011;7656;51.954;7.998;2022-12-13T08:00:26;17.83;;;10.17;;
15110;SDS011;7656;51.954;7.998;2022-12-13T08:04:47;19.17;;;10.37;;
15110;SDS011;7656;51.954;7.998;2022-12-13T08:09:08;21.27;;;11.43;;
15110;SDS011;7656;51.954;7.998;2022-12-13T08:13:29;23.77;;;13.30;;
15110;SDS011;7656;51.954;7.998;2022-12-13T08:17:51;25.10;;;14.40;;
15110;SDS011;7656;51.954;7.998;2022-12-13T08:22:16;27.10;;;14.43;;
15110;SDS011;7656;51.954;7.998;2022-12-13T08:26:37;26.00;;;13.33;;
15110;SDS011;7656;51.954;7.998;2022-12-13T08:31:05;22.43;;;13.60;;
15110;SDS011;7656;51.954;7.998;2022-12-13T08:35:30;26.77;;;13.83;;
15110;SDS011;7656;51.954;7.998;2022-12-13T08:39:51;25.80;;;13.80;;
15110;SDS011;7656;51.954;7.998;2022-12-13T08:44:13;28.77;;;15.57;;
15110;SDS011;7656;51.954;7.998;2022-12-13T08:48:34;21.50;;;14.00;;
15110;SDS011;7656;51.954;7.998;2022-12-13T08:52:55;20.63;;;13.40;;
15110;SDS011;7656;51.954;7.998;2022-12-13T08:57:16;24.53;;;14.03;;
15110;SDS011;7656;51.954;7.998;2022-12-13T09:01:38;23.80;;;13.83;;
15110;SDS011;7656;51.954;7.998;2022-12-13T09:06:09;19.97;;;12.23;;
15110;SDS011;7656;51.954;7.998;2022-12-13T09:10:35;22.33;;;12.63;;
15110;SDS011;7656;51.954;7.998;2022-12-13T09:14:56;21.90;;;12.70;;
15110;SDS011;7656;51.954;7.998;2022-12-13T09:19:18;22.60;;;12.50;;
15110;SDS011;7656;51.954;7.998;2022-12-13T09:23:39;22.70;;;13.00;;
15110;SDS011;7656;51.954;7.998;2022-12-13T09:28:05;23.10;;;10.67;;
15110;SDS011;7656;51.954;7.998;2022-12-13T09:32:27;22.90;;;11.97;;
15110;SDS011;7656;51.954;7.998;2022-12-13T09:36:49;20.33;;;12.27;;
15110;SDS011;7656;51.954;7.998;2022-12-13T09:45:43;24.63;;;12.67;;
15110;SDS011;7656;51.954;7.998;2022-12-13T09:50:12;22.73;;;12.67;;
15110;SDS011;7656;51.954;7.998;2022-12-13T09:54:41;24.23;;;11.37;;
15110;SDS011;7656;51.954;7.998;2022-12-13T09:59:03;20.53;;;11.90;;
15110;SDS011;7656;51.954;7.998;2022-12-13T10:03:24;20.70;;;12.57;;
15110;SDS011;7656;51.954;7.998;2022-12-13T10:07:46;22.73;;;12.27;;
15110;SDS011;7656;51.954;7.998;2022-12-13T10:12:08;20.03;;;11.97;;
15110;SDS011;7656;51.954;7.998;2022-12-13T10:20:57;21.00;;;12.63;;
15110;SDS011;7656;51.954;7.998;2022-12-13T10:34:33;24.90;;;12.60;;
15110;SDS011;7656;51.954;7.998;2022-12-13T10:38:55;20.80;;;12.03;;
15110;SDS011;7656;51.954;7.998;2022-12-13T10:43:20;20.83;;;11.70;;
15110;SDS011;7656;51.954;7.998;2022-12-13T10:47:45;22.53;;;12.13;;
15110;SDS011;7656;51.954;7.998;2022-12-13T10:52:17;19.60;;;11.30;;
15110;SDS011;7656;51.954;7.998;2022-12-13T10:56:52;20.03;;;11.60;;
15110;SDS011;7656;51.954;7.998;2022-12-13T11:01:20;18.73;;;10.53;;
15110;SDS011;7656;51.954;7.998;2022-12-13T11:05:43;18.63;;;10.57;;
15110;SDS011;7656;51.954;7.998;2022-12-13T11:10:25;18.13;;;10.20;;
15110;SDS011;7656;51.954;7.998;2022-12-13T11:23:55;19.00;;;9.70;;
15110;SDS011;7656;51.954;7.998;2022-12-13T11:33:12;18.40;;;10.30;;
15110;SDS011;7656;51.954;7.998;2022-12-13T11:42:41;19.40;;;9.90;;
15110;SDS011;7656;51.954;7.998;2022-12-13T11:47:12;17.20;;;9.33;;
15110;SDS011;7656;51.954;7.998;2022-12-13T11:51:42;17.90;;;10.00;;
15110;SDS011;7656;51.954;7.998;2022-12-13T12:01:05;17.43;;;9.33;;
15110;SDS011;7656;51.954;7.998;2022-12-13T12:05:35;19.17;;;10.47;;
15110;SDS011;7656;51.954;7.998;2022-12-13T12:14:59;20.10;;;11.23;;
15110;SDS011;7656;51.954;7.998;2022-12-13T12:19:34;17.13;;;10.87;;
15110;SDS011;7656;51.954;7.998;2022-12-13T12:24:01;20.70;;;10.53;;
15110;SDS011;7656;51.954;7.998;2022-12-13T12:28:58;16.13;;;8.73;;
15110;SDS011;7656;51.954;7.998;2022-12-13T12:33:32;16.83;;;10.13;;
15110;SDS011;7656;51.954;7.998;2022-12-13T12:43:01;19.40;;;9.60;;
15110;SDS011;7656;51.954;7.998;2022-12-13T12:52:17;14.07;;;8.90;;
15110;SDS011;7656;51.954;7.998;2022-12-13T12:57:17;21.33;;;10.63;;
15110;SDS011;7656;51.954;7.998;2022-12-13T13:01:56;18.37;;;9.53;;
15110;SDS011;7656;51.954;7.998;2022-12-13T13:06:48;15.63;;;8.90;;
15110;SDS011;7656;51.954;7.998;2022-12-13T13:11:18;20.70;;;10.23;;
15110;SDS011;7656;51.954;7.998;2022-12-13T13:20:11;17.40;;;10.30;;
15110;SDS011;7656;51.954;7.998;2022-12-13T13:24:56;16.57;;;9.23;;
15110;SDS011;7656;51.954;7.998;2022-12-13T13:29:42;14.93;;;9.73;;
15110;SDS011;7656;51.954;7.998;2022-12-13T13:34:20;16.33;;;9.43;;
15110;SDS011;7656;51.954;7.998;2022-12-13T13:38:50;19.03;;;9.87;;
15110;SDS011;7656;51.954;7.998;2022-12-13T13:43:13;18.07;;;10.93;;
15110;SDS011;7656;51.954;7.998;2022-12-13T13:47:37;18.90;;;11.13;;
15110;SDS011;7656;51.954;7.998;2022-12-13T14:11:52;19.60;;;10.30;;
15110;SDS011;7656;51.954;7.998;2022-12-13T14:30:31;14.30;;;9.37;;
15110;SDS011;7656;51.954;7.998;2022-12-13T14:34:54;18.93;;;10.53;;
15110;SDS011;7656;51.954;7.998;2022-12-13T14:39:16;16.37;;;9.30;;
15110;SDS011;7656;51.954;7.998;2022-12-13T14:43:37;15.10;;;8.67;;
15110;SDS011;7656;51.954;7.998;2022-12-13T14:47:59;19.50;;;9.93;;
15110;SDS011;7656;51.954;7.998;2022-12-13T14:52:26;16.97;;;9.07;;
15110;SDS011;7656;51.954;7.998;2022-12-13T14:57:01;21.13;;;10.03;;
15110;SDS011;7656;51.954;7.998;2022-12-13T15:01:25;17.67;;;9.73;;
15110;SDS011;7656;51.954;7.998;2022-12-13T15:05:56;17.20;;;9.73;;
15110;SDS011;7656;51.954;7.998;2022-12-13T15:10:25;15.63;;;9.27;;
15110;SDS011;7656;51.954;7.998;2022-12-13T15:15:02;16.43;;;9.80;;
15110;SDS011;7656;51.954;7.998;2022-12-13T15:19:27;16.10;;;8.67;;
15110;SDS011;7656;51.954;7.998;2022-12-13T15:23:57;17.43;;;10.27;;
15110;SDS011;7656;51.954;7.998;2022-12-13T15:28:23;19.37;;;9.63;;
15110;SDS011;7656;51.954;7.998;2022-12-13T15:33:00;17.47;;;10.00;;
15110;SDS011;7656;51.954;7.998;2022-12-13T15:37:25;16.57;;;9.73;;
15110;SDS011;7656;51.954;7.998;2022-12-13T15:41:53;14.73;;;9.73;;
15110;SDS011;7656;51.954;7.998;2022-12-13T15:46:22;17.87;;;9.07;;
15110;SDS011;7656;51.954;7.998;2022-12-13T15:50:49;16.57;;;8.83;;
15110;SDS011;7656;51.954;7.998;2022-12-13T15:59:32;18.87;;;9.07;;
15110;SDS011;7656;51.954;7.998;2022-12-13T16:03:54;18.90;;;9.43;;
15110;SDS011;7656;51.954;7.998;2022-12-13T16:08:26;20.40;;;10.40;;
15110;SDS011;7656;51.954;7.998;2022-12-13T16:12:52;17.50;;;8.60;;
15110;SDS011;7656;51.954;7.998;2022-12-13T16:17:21;17.53;;;8.87;;
15110;SDS011;7656;51.954;7.998;2022-12-13T16:21:45;17.00;;;8.97;;
15110;SDS011;7656;51.954;7.998;2022-12-13T16:26:09;16.53;;;9.13;;
15110;SDS011;7656;51.954;7.998;2022-12-13T16:35:12;19.30;;;8.83;;
15110;SDS011;7656;51.954;7.998;2022-12-13T16:39:33;18.30;;;9.20;;
15110;SDS011;7656;51.954;7.998;2022-12-13T16:43:57;17.67;;;9.60;;
15110;SDS011;7656;51.954;7.998;2022-12-13T16:48:21;15.40;;;9.30;;
15110;SDS011;7656;51.954;7.998;2022-12-13T16:52:42;21.20;;;9.97;;
15110;SDS011;7656;51.954;7.998;2022-12-13T16:57:04;20.60;;;11.23;;
15110;SDS011;7656;51.954;7.998;2022-12-13T17:01:25;21.07;;;10.70;;
15110;SDS011;7656;51.954;7.998;2022-12-13T17:05:46;17.27;;;9.97;;
15110;SDS011;7656;51.954;7.998;2022-12-13T17:10:08;28.37;;;13.27;;
15110;SDS011;7656;51.954;7.998;2022-12-13T17:14:30;19.00;;;9.40;;
15110;SDS011;7656;51.954;7.998;2022-12-13T17:18:51;18.33;;;8.67;;
15110;SDS011;7656;51.954;7.998;2022-12-13T17:23:15;15.30;;;8.57;;
15110;SDS011;7656;51.954;7.998;2022-12-13T17:27:38;16.80;;;8.50;;
15110;SDS011;7656;51.954;7.998;2022-12-13T17:32:00;17.73;;;9.90;;
15110;SDS011;7656;51.954;7.998;2022-12-13T17:36:21;21.93;;;9.33;;
15110;SDS011;7656;51.954;7.998;2022-12-13T17:40:42;17.53;;;8.40;;
15110;SDS011;7656;51.954;7.998;2022-12-13T17:45:03;15.40;;;7.80;;
15110;SDS011;7656;51.954;7.998;2022-12-13T17:49:25;14.23;;;8.10;;
15110;SDS011;7656;51.954;7.998;2022-12-13T17:53:46;21.43;;;9.23;;
15110;SDS011;7656;51.954;7.998;2022-12-13T17:58:07;17.10;;;9.50;;
15110;SDS011;7656;51.954;7.998;2022-12-13T18:02:29;16.50;;;8.93;;
15110;SDS011;7656;51.954;7.998;2022-12-13T18:06:50;17.30;;;7.93;;
15110;SDS011;7656;51.954;7.998;2022-12-13T18:11:12;13.20;;;7.93;;
15110;SDS011;7656;51.954;7.998;2022-12-13T18:15:34;13.20;;;7.80;;
15110;SDS011;7656;51.954;7.998;2022-12-13T18:19:56;16.20;;;8.47;;
15110;SDS011;7656;51.954;7.998;2022-12-13T18:24:17;18.80;;;7.67;;
15110;SDS011;7656;51.954;7.998;2022-12-13T18:28:38;16.67;;;8.10;;
15110;SDS011;7656;51.954;7.998;2022-12-13T18:33:01;15.00;;;9.13;;
15110;SDS011;7656;51.954;7.998;2022-12-13T18:37:24;20.03;;;10.00;;
15110;SDS011;7656;51.954;7.998;2022-12-13T18:41:45;16.63;;;9.20;;
15110;SDS011;7656;51.954;7.998;2022-12-13T18:46:06;18.13;;;8.60;;
15110;SDS011;7656;51.954;7.998;2022-12-13T18:50:28;16.50;;;8.73;;
15110;SDS011;7656;51.954;7.998;2022-12-13T18:54:49;16.33;;;8.13;;
15110;SDS011;7656;51.954;7.998;2022-12-13T18:59:11;14.03;;;6.87;;
15110;SDS011;7656;51.954;7.998;2022-12-13T19:03:32;14.30;;;7.23;;
15110;SDS011;7656;51.954;7.998;2022-12-13T19:07:53;13.23;;;6.77;;
15110;SDS011;7656;51.954;7.998;2022-12-13T19:12:14;16.47;;;7.80;;
15110;SDS011;7656;51.954;7.998;2022-12-13T19:16:35;20.50;;;7.97;;
15110;SDS011;7656;51.954;7.998;2022-12-13T19:20:56;14.17;;;7.70;;
15110;SDS011;7656;51.954;7.998;2022-12-13T19:25:18;13.83;;;7.33;;
15110;SDS011;7656;51.954;7.998;2022-12-13T19:29:39;12.80;;;7.37;;
15110;SDS011;7656;51.954;7.998;2022-12-13T19:34:01;11.00;;;6.50;;
15110;SDS011;7656;51.954;7.998;2022-12-13T19:38:22;14.40;;;8.03;;
15110;SDS011;7656;51.954;7.998;2022-12-13T19:42:43;11.07;;;6.57;;
15110;SDS011;7656;51.954;7.998;2022-12-13T19:47:04;17.90;;;6.97;;
15110;SDS011;7656;51.954;7.998;2022-12-13T19:51:26;11.00;;;5.67;;
15110;SDS011;7656;51.954;7.998;2022-12-13T19:55:47;14.47;;;6.43;;
15110;SDS011;7656;51.954;7.998;2022-12-13T20:00:08;10.30;;;6.20;;
15110;SDS011;7656;51.954;7.998;2022-12-13T20:04:31;15.50;;;7.67;;
15110;SDS011;7656;51.954;7.998;2022-12-13T20:08:52;14.90;;;7.17;;
15110;SDS011;7656;51.954;7.998;2022-12-13T20:13:13;17.17;;;6.27;;
15110;SDS011;7656;51.954;7.998;2022-12-13T20:17:34;13.83;;;6.37;;
15110;SDS011;7656;51.954;7.998;2022-12-13T20:21:55;12.83;;;7.20;;
15110;SDS011;7656;51.954;7.998;2022-12-13T20:26:18;11.63;;;5.97;;
15110;SDS011;7656;51.954;7.998;2022-12-13T20:30:42;12.20;;;6.57;;
15110;SDS011;7656;51.954;7.998;2022-12-13T20:35:04;13.20;;;6.47;;
15110;SDS011;7656;51.954;7.998;2022-12-13T20:39:25;11.70;;;6.13;;
15110;SDS011;7656;51.954;7.998;2022-12-13T20:43:49;13.23;;;5.73;;
15110;SDS011;7656;51.954;7.998;2022-12-13T20:48:12;7.00;;;5.10;;
15110;SDS011;7656;51.954;7.998;2022-12-13T20:52:33;12.30;;;6.60;;
15110;SDS011;7656;51.954;7.998;2022-12-13T20:56:54;15.33;;;6.67;;
15110;SDS011;7656;51.954;7.998;2022-12-13T21:01:16;12.63;;;6.80;;
15110;SDS011;7656;51.954;7.998;2022-12-13T21:05:39;11.70;;;5.90;;
15110;SDS011;7656;51.954;7.998;2022-12-13T21:10:03;11.40;;;6.47;;
15110;SDS011;7656;51.954;7.998;2022-12-13T21:14:26;13.87;;;7.80;;
15110;SDS011;7656;51.954;7.998;2022-12-13T21:18:48;8.63;;;4.13;;
15110;SDS011;7656;51.954;7.998;2022-12-13T21:23:11;11.93;;;6.03;;
15110;SDS011;7656;51.954;7.998;2022-12-13T21:27:32;16.70;;;6.70;;
15110;SDS011;7656;51.954;7.998;2022-12-13T21:31:53;12.07;;;6.73;;
15110;SDS011;7656;51.954;7.998;2022-12-13T21:36:16;7.53;;;4.97;;
15110;SDS011;7656;51.954;7.998;2022-12-13T21:40:52;12.67;;;7.27;;
15110;SDS011;7656;51.954;7.998;2022-12-13T21:45:13;14.07;;;6.80;;
15110;SDS011;7656;51.954;7.998;2022-12-13T21:49:35;11.60;;;7.27;;
15110;SDS011;7656;51.954;7.998;2022-12-13T21:53:56;10.53;;;7.13;;
15110;SDS011;7656;51.954;7.998;2022-12-13T21:58:18;10.80;;;7.00;;
15110;SDS011;7656;51.954;7.998;2022-12-13T22:02:57;12.97;;;6.63;;
15110;SDS011;7656;51.954;7.998;2022-12-13T22:07:23;12.57;;;6.00;;
15110;SDS011;7656;51.954;7.998;2022-12-13T22:11:47;13.70;;;6.03;;
15110;SDS011;7656;51.954;7.998;2022-12-13T22:16:08;11.03;;;5.50;;
15110;SDS011;7656;51.954;7.998;2022-12-13T22:20:29;13.07;;;6.17;;
15110;SDS011;7656;51.954;7.998;2022-12-13T22:24:50;12.53;;;6.30;;
15110;SDS011;7656;51.954;7.998;2022-12-13T22:29:12;9.10;;;5.60;;
15110;SDS011;7656;51.954;7.998;2022-12-13T22:33:33;10.80;;;6.40;;
15110;SDS011;7656;51.954;7.998;2022-12-13T22:37:54;14.37;;;6.20;;
15110;SDS011;7656;51.954;7.998;2022-12-13T22:42:16;9.63;;;6.07;;
15110;SDS011;7656;51.954;7.998;2022-12-13T22:46:37;9.50;;;5.00;;
15110;SDS011;7656;51.954;7.998;2022-12-13T22:51:06;14.03;;;6.73;;
15110;SDS011;7656;51.954;7.998;2022-12-13T22:55:32;13.23;;;6.37;;
15110;SDS011;7656;51.954;7.998;2022-12-13T22:59:53;10.13;;;5.60;;
15110;SDS011;7656;51.954;7.998;2022-12-13T23:04:14;9.97;;;5.27;;
15110;SDS011;7656;51.954;7.998;2022-12-13T23:08:35;10.93;;;6.07;;
15110;SDS011;7656;51.954;7.998;2022-12-13T23:12:57;10.20;;;5.70;;
15110;SDS011;7656;51.954;7.998;2022-12-13T23:17:21;13.87;;;5.30;;
15110;SDS011;7656;51.954;7.998;2022-12-13T23:21:42;8.67;;;5.33;;
15110;SDS011;7656;51.954;7.998;2022-12-13T23:26:07;7.73;;;5.20;;
15110;SDS011;7656;51.954;7.998;2022-12-13T23:30:36;6.30;;;4.23;;
15110;SDS011;7656;51.954;7.998;2022-12-13T23:34:57;8.27;;;4.73;;
15110;SDS011;7656;51.954;7.998;2022-12-13T23:39:18;10.63;;;5.43;;
15110;SDS011;7656;51.954;7.998;2022-12-13T23:43:39;5.93;;;3.63;;
15110;SDS011;7656;51.954;7.998;2022-12-13T23:48:01;7.23;;;4.10;;
15110;SDS011;7656;51.954;7.998;2022-12-13T23:52:23;8.10;;;4.50;;
15110;SDS011;7656;51.954;7.998;2022-12-13T23:56:44;6.37;;;4.37;;
